QFA16 KLAX-YBBN
Flight info
| Callsign | QFA16 |
|---|---|
| Flight time | N/A |
| Altitude | 36000 |
| Route | SUMMR2 FICKY DCT 3018N12336W 2750N12800W 2605N13328W 2321N13836W/N0476F380 2004N14326W 1805N14617W 1622N14847W 1346N15235W 1238N15415W 0924N15847W/N0468F400 0808N16019W 0454N16434W 0342N16611W 0033N17021W 0221S17410W 0340S17605W 0500S17806W 0633S17932E 0937S17500E 1123S17222E 1459S16732E 1827S16327E 1853S16300E 1920S16231E 2258S15902E DCT HARVS R587 ATROP H224 TEBOT |
| Aircraft | A333/H-SDE3GHIJ2J3J5M1RVWXY/LB2D1 |
Departure
| Time | 2026-04-24 11:19 |
|---|---|
| Airport | Los Angeles International Airport (KLAX) |
Arrival
| Time | N/A |
|---|---|
| Airport | Brisbane International Airport (YBBN) |
| Time | Latitude | Longitude | Altitude | Speed | Heading |
|---|---|---|---|---|---|
| 2026-04-24 10:53 | 33.94120 | -118.41409 | 126 ft | 0 kts | 300° |
| 2026-04-24 11:08 | 33.94116 | -118.41400 | 126 ft | 2 kts | 300° |
| 2026-04-24 11:08 | 33.94109 | -118.41385 | 126 ft | 2 kts | 300° |
| 2026-04-24 11:08 | 33.94101 | -118.41369 | 126 ft | 2 kts | 300° |
| 2026-04-24 11:09 | 33.94094 | -118.41353 | 126 ft | 2 kts | 300° |
| 2026-04-24 11:09 | 33.94086 | -118.41338 | 126 ft | 2 kts | 300° |
| 2026-04-24 11:09 | 33.94079 | -118.41322 | 126 ft | 2 kts | 300° |
| 2026-04-24 11:09 | 33.94070 | -118.41307 | 127 ft | 2 kts | 318° |
| 2026-04-24 11:10 | 33.94058 | -118.41296 | 127 ft | 2 kts | 333° |
| 2026-04-24 11:10 | 33.94044 | -118.41290 | 127 ft | 2 kts | 347° |
| 2026-04-24 11:10 | 33.94037 | -118.41288 | 127 ft | 1 kts | 353° |
| 2026-04-24 11:10 | 33.94036 | -118.41287 | 127 ft | 0 kts | 353° |
| 2026-04-24 11:13 | 33.94040 | -118.41288 | 127 ft | 1 kts | 353° |
| 2026-04-24 11:13 | 33.94065 | -118.41292 | 127 ft | 5 kts | 353° |
| 2026-04-24 11:13 | 33.94122 | -118.41301 | 125 ft | 10 kts | 353° |
| 2026-04-24 11:13 | 33.94205 | -118.41312 | 125 ft | 12 kts | 353° |
| 2026-04-24 11:14 | 33.94298 | -118.41328 | 125 ft | 14 kts | 352° |
| 2026-04-24 11:14 | 33.94403 | -118.41344 | 125 ft | 15 kts | 353° |
| 2026-04-24 11:14 | 33.94509 | -118.41360 | 125 ft | 14 kts | 353° |
| 2026-04-24 11:14 | 33.94608 | -118.41374 | 125 ft | 13 kts | 353° |
| 2026-04-24 11:15 | 33.94701 | -118.41388 | 125 ft | 12 kts | 353° |
| 2026-04-24 11:15 | 33.94772 | -118.41379 | 127 ft | 9 kts | 37° |
| 2026-04-24 11:15 | 33.94794 | -118.41308 | 128 ft | 8 kts | 82° |
| 2026-04-24 11:15 | 33.94803 | -118.41224 | 128 ft | 12 kts | 84° |
| 2026-04-24 11:16 | 33.94815 | -118.41103 | 128 ft | 15 kts | 83° |
| 2026-04-24 11:16 | 33.94828 | -118.40972 | 128 ft | 15 kts | 83° |
| 2026-04-24 11:16 | 33.94841 | -118.40836 | 128 ft | 16 kts | 83° |
| 2026-04-24 11:16 | 33.94857 | -118.40683 | 125 ft | 20 kts | 83° |
| 2026-04-24 11:17 | 33.94875 | -118.40511 | 125 ft | 20 kts | 83° |
| 2026-04-24 11:17 | 33.94893 | -118.40335 | 121 ft | 21 kts | 83° |
| 2026-04-24 11:17 | 33.94909 | -118.40169 | 121 ft | 18 kts | 84° |
| 2026-04-24 11:17 | 33.94933 | -118.40075 | 120 ft | 8 kts | 29° |
| 2026-04-24 11:18 | 33.94989 | -118.40073 | 119 ft | 7 kts | 354° |
| 2026-04-24 11:18 | 33.95022 | -118.40109 | 120 ft | 6 kts | 281° |
| 2026-04-24 11:18 | 33.95021 | -118.40152 | 121 ft | 3 kts | 265° |
| 2026-04-24 11:18 | 33.95013 | -118.40239 | 121 ft | 31 kts | 263° |
| 2026-04-24 11:19 | 33.94957 | -118.40794 | 127 ft | 100 kts | 263° |
| 2026-04-24 11:19 | 33.94845 | -118.41870 | 125 ft | 158 kts | 263° |
| 2026-04-24 11:19 | 33.94690 | -118.43310 | 485 ft | 174 kts | 263° |
| 2026-04-24 11:19 | 33.94544 | -118.44648 | 1307 ft | 157 kts | 263° |
| 2026-04-24 11:20 | 33.94419 | -118.45959 | 1534 ft | 163 kts | 264° |
| 2026-04-24 11:20 | 33.94405 | -118.47362 | 1673 ft | 173 kts | 279° |
| 2026-04-24 11:20 | 33.94366 | -118.48862 | 1838 ft | 185 kts | 264° |
| 2026-04-24 11:20 | 33.94273 | -118.50462 | 2032 ft | 198 kts | 267° |
| 2026-04-24 11:21 | 33.94134 | -118.52174 | 2219 ft | 211 kts | 264° |
| 2026-04-24 11:21 | 33.93983 | -118.54010 | 2379 ft | 231 kts | 264° |
| 2026-04-24 11:21 | 33.93824 | -118.56005 | 2749 ft | 247 kts | 265° |
| 2026-04-24 11:21 | 33.93656 | -118.58143 | 3146 ft | 262 kts | 265° |
| 2026-04-24 11:22 | 33.93309 | -118.62561 | 4472 ft | 268 kts | 265° |